createdAt,value
2017-08-22T00:00:37.965Z,12.34
2017-08-22T00:03:06.299Z,12.47
2017-08-22T00:05:34.657Z,12.41
2017-08-22T00:08:02.990Z,12.25
2017-08-22T00:10:31.353Z,12.23
2017-08-22T00:12:59.715Z,12.25
2017-08-22T00:15:28.053Z,12.36
2017-08-22T00:17:56.366Z,12.32
2017-08-22T00:20:24.720Z,12.07
2017-08-22T00:22:53.094Z,11.96
2017-08-22T00:25:21.418Z,12.14
2017-08-22T00:27:50.741Z,12.21
2017-08-22T00:30:19.089Z,12.29
2017-08-22T00:32:47.446Z,12.30
2017-08-22T00:35:15.789Z,12.16
2017-08-22T00:37:44.528Z,12.19
2017-08-22T00:40:12.846Z,11.94
2017-08-22T00:42:41.152Z,11.97
2017-08-22T00:45:09.646Z,12.06
2017-08-22T00:47:37.995Z,11.97
2017-08-22T00:50:06.344Z,11.83
2017-08-22T00:52:34.707Z,11.83
2017-08-22T00:55:04.121Z,11.86
2017-08-22T00:57:32.459Z,11.80
2017-08-22T01:00:00.787Z,11.72
2017-08-22T01:02:29.129Z,11.75
2017-08-22T01:04:57.539Z,11.91
2017-08-22T01:07:26.689Z,11.91
2017-08-22T01:09:55.041Z,11.76
2017-08-22T01:12:23.694Z,11.69
2017-08-22T01:14:52.037Z,11.65
2017-08-22T01:17:20.387Z,11.67
2017-08-22T01:19:48.738Z,11.56
2017-08-22T01:22:17.065Z,11.50
2017-08-22T01:24:45.398Z,11.50
2017-08-22T01:27:13.738Z,11.63
2017-08-22T01:29:42.093Z,11.61
2017-08-22T01:32:10.629Z,11.58
2017-08-22T01:34:38.983Z,11.67
2017-08-22T01:37:07.335Z,11.52
2017-08-22T01:39:35.808Z,11.52
2017-08-22T01:42:04.177Z,11.49
2017-08-22T01:44:32.526Z,11.42
2017-08-22T01:47:01.216Z,11.37
2017-08-22T01:49:29.578Z,11.36
2017-08-22T01:52:03.805Z,11.47
2017-08-22T01:54:32.122Z,11.38
2017-08-22T01:57:01.005Z,11.36
2017-08-22T01:59:29.353Z,11.24
2017-08-22T02:01:57.769Z,11.24
2017-08-22T02:04:26.243Z,11.12
2017-08-22T02:06:54.579Z,11.25
2017-08-22T02:09:22.931Z,11.07
2017-08-22T02:11:51.254Z,11.24
2017-08-22T02:14:19.617Z,11.31
2017-08-22T02:16:47.963Z,11.27
2017-08-22T02:19:16.300Z,11.40
2017-08-22T02:21:44.913Z,11.14
2017-08-22T02:24:13.237Z,11.16
2017-08-22T02:26:42.057Z,11.14
2017-08-22T02:29:10.424Z,11.03
2017-08-22T02:31:38.760Z,11.07
2017-08-22T02:34:07.387Z,11.10
2017-08-22T02:36:35.724Z,11.04
2017-08-22T02:39:04.062Z,11.11
2017-08-22T02:41:32.402Z,10.93
2017-08-22T02:44:00.758Z,10.79
2017-08-22T02:46:29.104Z,10.89
2017-08-22T02:48:57.503Z,10.76
2017-08-22T02:51:25.843Z,10.70
2017-08-22T02:53:54.190Z,10.85
2017-08-22T02:56:22.632Z,10.75
2017-08-22T02:58:50.981Z,10.74
2017-08-22T03:01:19.322Z,10.76
2017-08-22T03:03:47.677Z,10.88
2017-08-22T03:06:16.007Z,11.01
2017-08-22T03:08:44.343Z,11.00
2017-08-22T03:11:12.699Z,11.02
2017-08-22T03:13:41.017Z,10.94
2017-08-22T03:16:10.273Z,11.03
2017-08-22T03:18:38.651Z,10.91
2017-08-22T03:21:07.018Z,10.92
2017-08-22T03:23:35.331Z,10.98
2017-08-22T03:26:03.958Z,11.02
2017-08-22T03:28:32.272Z,11.02
2017-08-22T03:31:00.619Z,11.04
2017-08-22T03:33:28.977Z,11.04
2017-08-22T03:35:57.685Z,11.02
2017-08-22T03:38:26.055Z,10.99
2017-08-22T03:40:54.388Z,10.98
2017-08-22T03:43:22.736Z,10.91
2017-08-22T03:45:51.153Z,10.91
2017-08-22T03:48:19.546Z,10.89
2017-08-22T03:50:47.896Z,10.84
2017-08-22T03:53:16.253Z,10.83
2017-08-22T03:55:44.611Z,10.86
2017-08-22T03:58:12.964Z,10.82
2017-08-22T04:00:41.438Z,10.79
2017-08-22T04:03:09.759Z,10.78
2017-08-22T04:05:38.202Z,10.78
2017-08-22T04:08:06.571Z,10.73
2017-08-22T04:10:35.839Z,10.65
2017-08-22T04:13:04.182Z,10.69
2017-08-22T04:15:32.506Z,10.67
2017-08-22T04:18:00.862Z,10.70
2017-08-22T04:20:29.182Z,10.73
2017-08-22T04:22:57.527Z,10.75
2017-08-22T04:25:25.879Z,10.74
2017-08-22T04:27:54.214Z,10.77
2017-08-22T04:30:22.551Z,10.78
2017-08-22T04:32:50.863Z,10.80
2017-08-22T04:35:19.201Z,10.83
2017-08-22T04:37:47.519Z,10.87
2017-08-22T04:40:16.098Z,10.90
2017-08-22T04:42:44.444Z,10.91
2017-08-22T04:45:12.879Z,10.98
2017-08-22T04:47:41.229Z,11.00
2017-08-22T04:50:09.558Z,11.04
2017-08-22T04:52:37.896Z,11.05
2017-08-22T04:55:06.204Z,11.09
2017-08-22T04:57:34.552Z,11.11
2017-08-22T05:00:02.885Z,11.15
2017-08-22T05:02:31.249Z,11.16
2017-08-22T05:04:59.583Z,11.18
2017-08-22T05:07:27.916Z,11.23
2017-08-22T05:09:56.271Z,11.24
2017-08-22T05:12:24.588Z,11.24
2017-08-22T05:14:52.925Z,11.25
2017-08-22T05:17:21.269Z,11.32
2017-08-22T05:19:49.625Z,11.30
2017-08-22T05:22:17.971Z,11.28
2017-08-22T05:24:46.317Z,11.24
2017-08-22T05:27:14.784Z,11.34
2017-08-22T05:29:43.103Z,11.45
2017-08-22T05:32:11.435Z,11.51
2017-08-22T05:34:39.769Z,11.56
2017-08-22T05:37:08.551Z,11.60
2017-08-22T05:39:37.656Z,11.41
2017-08-22T05:42:05.986Z,11.39
2017-08-22T05:44:34.318Z,11.44
2017-08-22T05:47:02.640Z,11.51
2017-08-22T05:49:31.017Z,11.63
2017-08-22T05:51:59.490Z,11.69
2017-08-22T05:54:27.812Z,11.71
2017-08-22T05:56:56.234Z,11.63
2017-08-22T05:59:24.653Z,11.68
2017-08-22T06:01:53.005Z,11.78
2017-08-22T06:04:21.316Z,11.73
2017-08-22T06:06:50.140Z,11.83
2017-08-22T06:09:18.526Z,11.84
2017-08-22T06:11:46.875Z,11.86
2017-08-22T06:14:15.227Z,11.93
2017-08-22T06:16:43.544Z,11.99
2017-08-22T06:19:12.344Z,11.99
2017-08-22T06:21:40.680Z,12.09
2017-08-22T06:24:08.994Z,12.17
2017-08-22T06:26:37.333Z,12.22
2017-08-22T06:29:05.749Z,12.26
2017-08-22T06:31:34.098Z,12.28
2017-08-22T06:34:02.535Z,12.39
2017-08-22T06:36:30.959Z,12.49
2017-08-22T06:38:59.328Z,12.45
2017-08-22T06:41:28.115Z,12.58
2017-08-22T06:43:56.440Z,12.57
2017-08-22T06:46:24.798Z,12.64
2017-08-22T06:48:53.142Z,12.80
2017-08-22T06:51:21.508Z,12.89
2017-08-22T06:53:50.123Z,12.97
2017-08-22T06:56:18.457Z,13.06
2017-08-22T06:58:47.660Z,13.09
2017-08-22T07:01:17.933Z,13.16
2017-08-22T07:03:46.504Z,13.21
2017-08-22T07:06:14.899Z,13.26
2017-08-22T07:08:43.492Z,13.37
2017-08-22T07:11:11.963Z,13.42
2017-08-22T07:13:40.473Z,13.49
2017-08-22T07:16:09.069Z,13.58
2017-08-22T07:18:43.994Z,13.63
2017-08-22T07:21:12.403Z,13.77
2017-08-22T07:23:40.795Z,13.86
2017-08-22T07:26:09.210Z,13.95
2017-08-22T07:28:37.653Z,14.00
2017-08-22T07:31:05.994Z,14.10
2017-08-22T07:33:34.611Z,14.20
2017-08-22T07:36:03.076Z,14.29
2017-08-22T07:38:31.408Z,14.38
2017-08-22T07:40:59.891Z,14.47
2017-08-22T07:43:28.258Z,14.55
2017-08-22T07:45:56.594Z,14.63
2017-08-22T07:48:24.954Z,14.76
2017-08-22T07:50:53.776Z,14.83
2017-08-22T07:53:22.106Z,14.91
2017-08-22T07:55:50.541Z,15.03
2017-08-22T07:58:18.905Z,15.14
2017-08-22T08:00:47.256Z,15.22
2017-08-22T08:03:15.618Z,15.28
2017-08-22T08:05:43.946Z,15.38
2017-08-22T08:08:12.305Z,15.48
2017-08-22T08:10:40.790Z,15.58
2017-08-22T08:13:09.452Z,15.68
2017-08-22T08:15:37.813Z,15.76
2017-08-22T08:18:06.161Z,15.86
2017-08-22T08:20:34.605Z,15.95
2017-08-22T08:23:02.940Z,16.06
2017-08-22T08:25:31.284Z,16.13
2017-08-22T08:27:59.628Z,16.26
2017-08-22T08:30:27.990Z,16.39
2017-08-22T08:32:56.314Z,16.50
2017-08-22T08:35:24.690Z,16.59
2017-08-22T08:37:53.041Z,16.68
2017-08-22T08:40:21.745Z,16.76
2017-08-22T08:42:50.086Z,16.82
2017-08-22T08:45:18.413Z,16.88
2017-08-22T08:47:46.798Z,16.97
2017-08-22T08:50:15.173Z,17.03
2017-08-22T08:52:43.549Z,17.10
2017-08-22T08:55:11.885Z,17.24
2017-08-22T08:57:40.670Z,17.34
2017-08-22T09:00:09.012Z,17.47
2017-08-22T09:02:41.123Z,17.56
2017-08-22T09:05:09.473Z,17.67
2017-08-22T09:07:37.800Z,17.80
2017-08-22T09:10:06.145Z,18.02
2017-08-22T09:12:34.478Z,18.07
2017-08-22T09:15:02.861Z,18.12
2017-08-22T09:17:31.195Z,18.17
2017-08-22T09:19:59.559Z,18.20
2017-08-22T09:22:27.892Z,18.25
2017-08-22T09:24:57.616Z,18.28
2017-08-22T09:27:25.953Z,18.37
2017-08-22T09:29:54.721Z,18.46
2017-08-22T09:32:23.839Z,18.49
2017-08-22T09:34:52.310Z,18.53
2017-08-22T09:37:20.671Z,18.55
2017-08-22T09:39:49.000Z,18.55
2017-08-22T09:42:17.371Z,18.69
2017-08-22T09:44:45.683Z,18.76
2017-08-22T09:47:14.396Z,18.86
2017-08-22T09:49:42.720Z,18.91
2017-08-22T09:52:11.950Z,18.94
2017-08-22T09:54:40.376Z,18.93
2017-08-22T09:57:08.775Z,18.92
2017-08-22T09:59:37.121Z,18.91
2017-08-22T10:02:05.483Z,18.90
2017-08-22T10:05:13.985Z,19.11
2017-08-22T10:07:42.334Z,19.17
2017-08-22T10:10:10.692Z,19.23
2017-08-22T10:12:39.047Z,19.31
2017-08-22T10:15:07.413Z,19.36
2017-08-22T10:17:35.763Z,19.38
2017-08-22T10:20:04.088Z,19.45
2017-08-22T10:22:32.435Z,19.53
2017-08-22T10:25:00.776Z,19.54
2017-08-22T10:27:29.133Z,19.60
2017-08-22T10:29:57.620Z,19.64
2017-08-22T10:32:26.046Z,19.67
2017-08-22T10:34:54.372Z,19.83
2017-08-22T10:37:23.225Z,19.89
2017-08-22T10:39:51.579Z,20.03
2017-08-22T10:42:19.913Z,20.13
2017-08-22T10:44:48.275Z,20.23
2017-08-22T10:47:16.593Z,20.22
2017-08-22T10:49:44.930Z,20.25
2017-08-22T10:52:13.285Z,20.19
2017-08-22T10:54:41.635Z,20.32
2017-08-22T10:57:09.984Z,20.34
2017-08-22T10:59:38.342Z,20.33
2017-08-22T11:02:06.671Z,20.33
2017-08-22T11:04:35.025Z,20.33
2017-08-22T11:07:03.383Z,20.37
2017-08-22T11:09:31.695Z,20.39
2017-08-22T11:12:00.028Z,20.37
2017-08-22T11:14:28.348Z,20.45
2017-08-22T11:16:56.697Z,20.53
2017-08-22T11:19:25.033Z,20.56
2017-08-22T11:21:53.399Z,20.63
2017-08-22T11:24:21.727Z,20.71
2017-08-22T11:26:50.065Z,20.78
2017-08-22T11:29:18.403Z,20.89
2017-08-22T11:31:47.033Z,20.97
2017-08-22T11:34:15.369Z,20.92
2017-08-22T11:36:43.683Z,20.84
2017-08-22T11:39:12.040Z,20.83
2017-08-22T11:41:40.378Z,20.87
2017-08-22T11:44:08.734Z,20.95
2017-08-22T11:46:37.071Z,20.99
2017-08-22T11:49:05.417Z,21.00
2017-08-22T11:51:33.763Z,21.00
2017-08-22T11:54:02.942Z,21.04
2017-08-22T11:56:31.266Z,21.06
2017-08-22T11:58:59.622Z,21.11
2017-08-22T12:01:27.975Z,21.11
2017-08-22T12:03:56.296Z,21.17
2017-08-22T12:06:24.650Z,21.22
2017-08-22T12:08:52.990Z,21.30
2017-08-22T12:11:21.334Z,21.37
2017-08-22T12:13:49.644Z,21.45
2017-08-22T12:16:17.974Z,21.47
2017-08-22T12:18:46.318Z,21.49
2017-08-22T12:21:14.695Z,21.47
2017-08-22T12:23:43.055Z,21.54
2017-08-22T12:26:11.389Z,21.61
2017-08-22T12:28:39.736Z,21.63
2017-08-22T12:31:08.081Z,21.56
2017-08-22T12:33:36.429Z,21.61
2017-08-22T12:36:04.797Z,21.68
2017-08-22T12:38:33.407Z,21.70
2017-08-22T12:41:01.750Z,21.81
2017-08-22T12:43:30.069Z,21.87
2017-08-22T12:45:58.422Z,21.88
2017-08-22T12:48:26.773Z,21.93
2017-08-22T12:50:55.121Z,21.93
2017-08-22T12:53:23.439Z,21.94
2017-08-22T12:55:51.782Z,21.94
2017-08-22T12:58:20.210Z,22.01
2017-08-22T13:00:48.680Z,22.06
2017-08-22T13:03:17.037Z,22.10
2017-08-22T13:05:45.369Z,22.16
2017-08-22T13:08:13.774Z,22.19
2017-08-22T13:10:42.113Z,22.23
2017-08-22T13:13:10.469Z,22.27
2017-08-22T13:15:38.806Z,22.28
2017-08-22T13:18:07.158Z,22.32
2017-08-22T13:20:35.491Z,22.36
2017-08-22T13:23:03.891Z,22.40
2017-08-22T13:25:32.227Z,22.43
2017-08-22T13:28:00.615Z,22.47
2017-08-22T13:30:28.980Z,22.50
2017-08-22T13:32:57.600Z,22.56
2017-08-22T13:35:25.938Z,22.59
2017-08-22T13:37:54.553Z,22.69
2017-08-22T13:40:22.943Z,22.78
2017-08-22T13:42:51.280Z,22.86
2017-08-22T13:45:19.618Z,22.99
2017-08-22T13:47:47.947Z,23.09
2017-08-22T13:50:16.294Z,23.26
2017-08-22T13:52:44.695Z,23.32
2017-08-22T13:55:13.025Z,23.51
2017-08-22T13:57:41.353Z,23.87
2017-08-22T14:00:09.956Z,24.01
2017-08-22T14:02:38.286Z,24.18
2017-08-22T14:05:06.631Z,24.47
2017-08-22T14:07:34.986Z,24.63
2017-08-22T14:10:03.301Z,24.42
2017-08-22T14:12:31.919Z,24.30
2017-08-22T14:15:00.270Z,24.04
2017-08-22T14:17:28.637Z,24.32
2017-08-22T14:19:57.011Z,24.73
2017-08-22T14:22:25.614Z,24.74
2017-08-22T14:24:53.941Z,24.48
2017-08-22T14:27:22.278Z,24.67
2017-08-22T14:29:50.626Z,24.88
2017-08-22T14:32:19.613Z,25.02
2017-08-22T14:34:47.962Z,25.33
2017-08-22T14:37:16.294Z,25.29
2017-08-22T14:39:45.026Z,25.10
2017-08-22T14:42:13.344Z,25.25
2017-08-22T14:44:41.690Z,25.65
2017-08-22T14:47:10.055Z,25.97
2017-08-22T14:49:38.410Z,26.27
2017-08-22T14:52:06.756Z,26.57
2017-08-22T14:54:36.111Z,26.67
2017-08-22T14:57:04.534Z,26.98
2017-08-22T14:59:32.893Z,27.34
2017-08-22T15:02:01.239Z,27.32
2017-08-22T15:04:29.568Z,27.51
2017-08-22T15:06:57.910Z,27.67
2017-08-22T15:09:26.250Z,27.11
2017-08-22T15:11:54.649Z,26.58
2017-08-22T15:14:22.977Z,26.70
2017-08-22T15:16:51.575Z,27.18
2017-08-22T15:19:19.913Z,27.61
2017-08-22T15:21:48.297Z,28.13
2017-08-22T15:24:16.655Z,28.44
2017-08-22T15:26:44.981Z,28.60
2017-08-22T15:29:13.336Z,28.74
2017-08-22T15:31:41.674Z,29.07
2017-08-22T15:34:10.026Z,29.17
2017-08-22T15:36:38.345Z,29.44
2017-08-22T15:39:06.942Z,29.54
2017-08-22T15:41:35.272Z,29.50
2017-08-22T15:44:08.332Z,28.84
2017-08-22T15:46:36.902Z,28.69
2017-08-22T15:49:05.253Z,28.79
2017-08-22T15:51:33.630Z,29.10
2017-08-22T15:54:01.964Z,29.31
2017-08-22T15:56:31.134Z,28.90
2017-08-22T15:58:59.489Z,28.91
2017-08-22T16:01:27.839Z,28.88
2017-08-22T16:03:56.284Z,28.42
2017-08-22T16:06:24.649Z,28.06
2017-08-22T16:08:52.993Z,27.64
2017-08-22T16:11:21.337Z,27.41
2017-08-22T16:13:49.676Z,27.21
2017-08-22T16:16:18.523Z,26.89
2017-08-22T16:18:46.863Z,26.59
2017-08-22T16:21:15.204Z,26.52
2017-08-22T16:23:43.651Z,26.30
2017-08-22T16:26:12.042Z,26.13
2017-08-22T16:28:40.369Z,25.97
2017-08-22T16:31:08.727Z,25.80
2017-08-22T16:33:37.091Z,25.74
2017-08-22T16:36:05.420Z,25.44
2017-08-22T16:38:33.786Z,25.31
2017-08-22T16:41:02.134Z,25.20
2017-08-22T16:43:30.577Z,25.18
2017-08-22T16:45:59.067Z,25.16
2017-08-22T16:48:27.456Z,24.96
2017-08-22T16:50:55.775Z,25.00
2017-08-22T16:53:24.148Z,25.00
2017-08-22T16:55:52.476Z,24.80
2017-08-22T16:58:20.833Z,24.66
2017-08-22T17:00:49.223Z,24.55
2017-08-22T17:03:17.552Z,24.27
2017-08-22T17:05:45.894Z,24.30
2017-08-22T17:08:14.218Z,24.00
2017-08-22T17:10:42.568Z,23.91
2017-08-22T17:13:10.908Z,23.72
2017-08-22T17:15:39.320Z,23.65
2017-08-22T17:18:07.686Z,23.58
2017-08-22T17:20:36.120Z,23.45
2017-08-22T17:23:04.447Z,23.22
2017-08-22T17:25:35.015Z,23.04
2017-08-22T17:28:03.387Z,22.97
2017-08-22T17:30:31.751Z,22.77
2017-08-22T17:33:00.106Z,22.64
2017-08-22T17:35:28.446Z,22.54
2017-08-22T17:37:56.788Z,22.38
2017-08-22T17:40:25.137Z,22.20
2017-08-22T17:42:53.503Z,22.06
2017-08-22T17:45:21.839Z,21.86
2017-08-22T17:47:50.193Z,21.74
2017-08-22T17:50:18.518Z,21.69
2017-08-22T17:52:46.865Z,21.46
2017-08-22T17:55:15.235Z,21.46
2017-08-22T17:57:44.341Z,21.31
2017-08-22T18:00:12.684Z,21.14
2017-08-22T18:02:41.056Z,21.17
2017-08-22T18:05:09.425Z,20.95
2017-08-22T18:07:37.771Z,20.80
2017-08-22T18:10:06.122Z,20.67
2017-08-22T18:12:34.471Z,20.54
2017-08-22T18:15:03.440Z,20.45
2017-08-22T18:17:31.773Z,20.34
2017-08-22T18:20:00.119Z,20.20
2017-08-22T18:22:28.483Z,20.13
2017-08-22T18:24:56.818Z,20.21
2017-08-22T18:27:25.187Z,20.12
2017-08-22T18:29:53.527Z,20.19
2017-08-22T18:32:21.870Z,20.03
2017-08-22T18:34:50.197Z,19.83
2017-08-22T18:37:18.561Z,19.97
2017-08-22T18:39:46.906Z,19.76
2017-08-22T18:42:15.234Z,19.67
2017-08-22T18:44:43.609Z,19.39
2017-08-22T18:47:11.987Z,19.49
2017-08-22T18:49:40.356Z,19.23
2017-08-22T18:52:08.696Z,19.35
2017-08-22T18:54:37.412Z,19.32
2017-08-22T18:57:05.749Z,19.33
2017-08-22T18:59:34.454Z,19.25
2017-08-22T19:02:02.798Z,18.96
2017-08-22T19:04:31.132Z,18.95
2017-08-22T19:06:59.519Z,19.10
2017-08-22T19:09:27.864Z,18.84
2017-08-22T19:11:56.219Z,18.75
2017-08-22T19:14:24.562Z,18.70
2017-08-22T19:16:53.032Z,18.74
2017-08-22T19:19:21.407Z,18.89
2017-08-22T19:21:50.193Z,18.66
2017-08-22T19:24:18.524Z,18.50
2017-08-22T19:26:46.849Z,18.43
2017-08-22T19:29:15.184Z,18.43
2017-08-22T19:31:43.516Z,18.39
2017-08-22T19:34:11.879Z,18.35
2017-08-22T19:36:40.250Z,18.43
2017-08-22T19:39:08.614Z,18.44
2017-08-22T19:41:36.964Z,18.43
2017-08-22T19:44:05.319Z,18.43
2017-08-22T19:46:33.747Z,18.42
2017-08-22T19:49:02.357Z,18.23
2017-08-22T19:51:30.708Z,18.25
2017-08-22T19:53:59.046Z,18.21
2017-08-22T19:56:27.415Z,18.16
2017-08-22T19:58:55.766Z,18.18
2017-08-22T20:01:24.129Z,18.34
2017-08-22T20:03:52.449Z,18.29
2017-08-22T20:06:20.797Z,18.10
2017-08-22T20:08:50.057Z,17.99
2017-08-22T20:11:18.714Z,18.06
2017-08-22T20:13:47.049Z,17.89
2017-08-22T20:16:15.389Z,17.99
2017-08-22T20:18:43.750Z,18.07
2017-08-22T20:21:12.093Z,17.92
2017-08-22T20:23:40.447Z,17.88
2017-08-22T20:26:08.776Z,17.83
2017-08-22T20:28:37.304Z,17.80
2017-08-22T20:31:05.745Z,17.72
2017-08-22T20:33:34.112Z,17.67
2017-08-22T20:36:02.458Z,17.75
2017-08-22T20:38:30.785Z,17.69
2017-08-22T20:40:59.157Z,17.66
2017-08-22T20:43:27.508Z,17.56
2017-08-22T20:45:55.969Z,17.40
2017-08-22T20:48:24.303Z,17.36
2017-08-22T20:50:52.718Z,17.53
2017-08-22T20:53:21.065Z,17.62
2017-08-22T20:55:49.716Z,17.34
2017-08-22T20:58:18.444Z,17.25
2017-08-22T21:00:46.799Z,17.10
2017-08-22T21:03:15.178Z,17.00
2017-08-22T21:05:43.621Z,16.98
2017-08-22T21:08:11.973Z,17.13
2017-08-22T21:10:40.301Z,17.03
2017-08-22T21:13:09.153Z,16.97
2017-08-22T21:15:37.518Z,16.88
2017-08-22T21:18:05.838Z,16.99
2017-08-22T21:20:34.181Z,16.89
2017-08-22T21:23:02.511Z,16.82
2017-08-22T21:25:30.862Z,16.72
2017-08-22T21:27:59.784Z,16.82
2017-08-22T21:30:28.140Z,16.76
2017-08-22T21:32:56.506Z,16.59
2017-08-22T21:35:24.828Z,16.74
2017-08-22T21:37:53.472Z,16.65
2017-08-22T21:40:21.780Z,16.67
2017-08-22T21:42:50.109Z,16.48
2017-08-22T21:45:18.450Z,16.38
2017-08-22T21:47:47.270Z,16.44
2017-08-22T21:50:15.585Z,16.42
2017-08-22T21:52:44.283Z,16.27
2017-08-22T21:55:12.607Z,16.35
2017-08-22T21:57:40.938Z,16.48
2017-08-22T22:00:09.286Z,16.55
2017-08-22T22:02:37.621Z,16.30
2017-08-22T22:05:05.970Z,16.30
2017-08-22T22:07:34.316Z,16.45
2017-08-22T22:10:02.661Z,16.17
2017-08-22T22:12:31.022Z,16.16
2017-08-22T22:14:59.451Z,16.12
2017-08-22T22:17:27.813Z,16.04
2017-08-22T22:19:56.195Z,16.04
2017-08-22T22:22:24.548Z,15.99
2017-08-22T22:24:52.890Z,15.93
2017-08-22T22:27:21.240Z,16.00
2017-08-22T22:29:49.579Z,16.02
2017-08-22T22:32:17.915Z,15.94
2017-08-22T22:34:46.231Z,16.05
2017-08-22T22:37:14.569Z,15.93
2017-08-22T22:39:42.893Z,15.91
2017-08-22T22:42:11.494Z,16.01
2017-08-22T22:44:39.841Z,15.83
2017-08-22T22:47:08.186Z,15.82
2017-08-22T22:49:36.523Z,15.95
2017-08-22T22:52:04.847Z,15.78
2017-08-22T22:54:33.951Z,15.78
2017-08-22T22:57:02.262Z,15.82
2017-08-22T22:59:30.649Z,15.83
2017-08-22T23:01:58.985Z,15.73
2017-08-22T23:04:27.329Z,15.79
2017-08-22T23:06:55.656Z,15.64
2017-08-22T23:09:24.147Z,15.54
2017-08-22T23:11:52.513Z,15.50
2017-08-22T23:14:20.861Z,15.54
2017-08-22T23:16:49.679Z,15.60
2017-08-22T23:19:18.009Z,15.58
2017-08-22T23:21:46.340Z,15.60
2017-08-22T23:24:14.688Z,15.68
2017-08-22T23:26:43.033Z,15.49
2017-08-22T23:29:11.474Z,15.44
2017-08-22T23:31:39.826Z,15.50
2017-08-22T23:34:08.141Z,15.32
2017-08-22T23:36:36.472Z,15.42
2017-08-22T23:39:04.792Z,15.53
2017-08-22T23:41:33.112Z,15.48
2017-08-22T23:44:01.455Z,15.50
2017-08-22T23:46:29.782Z,15.42
2017-08-22T23:48:58.139Z,15.40
2017-08-22T23:51:26.481Z,15.40
2017-08-22T23:53:55.279Z,15.22
2017-08-22T23:56:23.624Z,15.27
2017-08-22T23:58:51.934Z,15.24
